This is the latest recevied weather packets stored in our database for station/object F8BPU-10. If no packets are shown the sender has not sent any weather packets the latest 1 day(s).
| Time | Temp. | Humidity | Pressure | Rain* | Wind** | Luminosity | Snow |
|---|---|---|---|---|---|---|---|
| 1778115036 | 23.33° C | 34% | 1014.6 hPa | - | - | - | - |
| 1778114136 | 23.33° C | 34% | 1014.7 hPa | - | - | - | - |
| 1778113236 | 23.33° C | 34% | 1014.7 hPa | - | - | - | - |
| 1778105135 | 23.33° C | 35% | 1014.1 hPa | - | - | - | - |
| 1778104235 | 23.33° C | 35% | 1014.1 hPa | - | - | - | - |
| 1778097934 | 20° C | 38% | 1013.4 hPa | - | - | - | - |
| 1778096134 | 20° C | 37% | 1013.1 hPa | - | - | - | - |
| 1778095234 | 20.56° C | 37% | 1012.9 hPa | - | - | - | - |
| 1778094334 | 20.56° C | 38% | 1012.8 hPa | - | - | - | - |
| 1778093434 | 20.56° C | 38% | 1012.6 hPa | - | - | - | - |
| 1778087133 | 20.56° C | 38% | 1011.6 hPa | - | - | - | - |
| 1778086233 | 20.56° C | 37% | 1011.6 hPa | - | - | - | - |
| 1778085333 | 20.56° C | 38% | 1011.5 hPa | - | - | - | - |
| 1778084433 | 20.56° C | 38% | 1011.5 hPa | - | - | - | - |
| 1778083533 | 20.56° C | 37% | 1011.5 hPa | - | - | - | - |
| 1778076332 | 20.56° C | 37% | 1011.5 hPa | - | - | - | - |
| 1778075432 | 20.56° C | 37% | 1011.5 hPa | - | - | - | - |
| 1778074532 | 20.56° C | 37% | 1011.6 hPa | - | - | - | - |
| 1778073632 | 21.11° C | 37% | 1011.6 hPa | - | - | - | - |
| 1778065531 | 21.11° C | 35% | 1011.3 hPa | - | - | - | - |
| 1778064631 | 21.67° C | 35% | 1011.3 hPa | - | - | - | - |
| 1778063731 | 21.67° C | 34% | 1011.2 hPa | - | - | - | - |
| 1778062831 | 21.67° C | 34% | 1011 hPa | - | - | - | - |
| 1778061031 | 22.22° C | 33% | 1010.8 hPa | - | - | - | - |
| 1778057430 | 23.89° C | 30% | 1010.5 hPa | - | - | - | - |
* Rain since midnight (hover to see other rain measurements)
** Current wind speed in m/s (hover to see current wind gust speed)